sensor_id;sensor_type;location;lat;lon;timestamp;P1;durP1;ratioP1;P2;durP2;ratioP2
24761;SDS011;12865;51.934;10.330;2023-04-03T00:02:24;6.70;;;1.58;;
24761;SDS011;12865;51.934;10.330;2023-04-03T00:05:10;3.50;;;1.90;;
24761;SDS011;12865;51.934;10.330;2023-04-03T00:07:55;4.57;;;1.52;;
24761;SDS011;12865;51.934;10.330;2023-04-03T00:10:41;3.80;;;1.45;;
24761;SDS011;12865;51.934;10.330;2023-04-03T00:13:27;5.57;;;2.15;;
24761;SDS011;12865;51.934;10.330;2023-04-03T00:16:13;5.63;;;1.58;;
24761;SDS011;12865;51.934;10.330;2023-04-03T00:18:59;4.07;;;1.65;;
24761;SDS011;12865;51.934;10.330;2023-04-03T00:21:45;5.68;;;1.80;;
24761;SDS011;12865;51.934;10.330;2023-04-03T00:24:30;4.00;;;1.92;;
24761;SDS011;12865;51.934;10.330;2023-04-03T00:30:34;5.43;;;1.90;;
24761;SDS011;12865;51.934;10.330;2023-04-03T00:33:20;5.40;;;1.73;;
24761;SDS011;12865;51.934;10.330;2023-04-03T00:36:08;5.60;;;1.70;;
24761;SDS011;12865;51.934;10.330;2023-04-03T00:38:55;4.20;;;2.28;;
24761;SDS011;12865;51.934;10.330;2023-04-03T00:41:40;3.53;;;1.60;;
24761;SDS011;12865;51.934;10.330;2023-04-03T00:47:18;4.45;;;1.90;;
24761;SDS011;12865;51.934;10.330;2023-04-03T00:50:04;7.47;;;1.83;;
24761;SDS011;12865;51.934;10.330;2023-04-03T00:52:50;6.00;;;1.63;;
24761;SDS011;12865;51.934;10.330;2023-04-03T00:55:36;5.32;;;2.33;;
24761;SDS011;12865;51.934;10.330;2023-04-03T00:58:26;6.47;;;1.88;;
24761;SDS011;12865;51.934;10.330;2023-04-03T01:01:20;4.68;;;1.90;;
24761;SDS011;12865;51.934;10.330;2023-04-03T01:07:33;5.72;;;2.03;;
24761;SDS011;12865;51.934;10.330;2023-04-03T01:10:20;7.95;;;2.10;;
24761;SDS011;12865;51.934;10.330;2023-04-03T01:13:24;3.80;;;1.73;;
24761;SDS011;12865;51.934;10.330;2023-04-03T01:16:14;6.00;;;1.65;;
24761;SDS011;12865;51.934;10.330;2023-04-03T01:19:00;3.85;;;1.90;;
24761;SDS011;12865;51.934;10.330;2023-04-03T01:24:49;5.22;;;1.70;;
24761;SDS011;12865;51.934;10.330;2023-04-03T01:27:36;3.78;;;1.77;;
24761;SDS011;12865;51.934;10.330;2023-04-03T01:30:24;4.90;;;1.58;;
24761;SDS011;12865;51.934;10.330;2023-04-03T01:33:15;2.63;;;1.50;;
24761;SDS011;12865;51.934;10.330;2023-04-03T01:36:01;5.60;;;2.13;;
24761;SDS011;12865;51.934;10.330;2023-04-03T01:38:48;5.00;;;1.70;;
24761;SDS011;12865;51.934;10.330;2023-04-03T01:41:34;7.30;;;1.70;;
24761;SDS011;12865;51.934;10.330;2023-04-03T01:44:19;5.25;;;1.88;;
24761;SDS011;12865;51.934;10.330;2023-04-03T01:47:06;4.78;;;1.83;;
24761;SDS011;12865;51.934;10.330;2023-04-03T01:49:52;6.93;;;2.10;;
24761;SDS011;12865;51.934;10.330;2023-04-03T01:52:38;4.13;;;2.13;;
24761;SDS011;12865;51.934;10.330;2023-04-03T01:55:24;9.73;;;2.42;;
24761;SDS011;12865;51.934;10.330;2023-04-03T01:58:10;8.10;;;2.40;;
24761;SDS011;12865;51.934;10.330;2023-04-03T02:00:55;6.13;;;2.40;;
24761;SDS011;12865;51.934;10.330;2023-04-03T02:03:41;7.20;;;1.92;;
24761;SDS011;12865;51.934;10.330;2023-04-03T02:06:27;6.03;;;2.40;;
24761;SDS011;12865;51.934;10.330;2023-04-03T02:09:12;4.95;;;1.90;;
24761;SDS011;12865;51.934;10.330;2023-04-03T02:11:58;5.70;;;1.70;;
24761;SDS011;12865;51.934;10.330;2023-04-03T02:14:44;3.85;;;2.10;;
24761;SDS011;12865;51.934;10.330;2023-04-03T02:17:30;3.47;;;1.98;;
24761;SDS011;12865;51.934;10.330;2023-04-03T02:20:16;5.72;;;2.03;;
24761;SDS011;12865;51.934;10.330;2023-04-03T02:23:02;11.07;;;2.42;;
24761;SDS011;12865;51.934;10.330;2023-04-03T02:25:49;5.57;;;2.22;;
24761;SDS011;12865;51.934;10.330;2023-04-03T02:28:35;6.38;;;2.20;;
24761;SDS011;12865;51.934;10.330;2023-04-03T02:31:21;5.32;;;2.08;;
24761;SDS011;12865;51.934;10.330;2023-04-03T02:34:10;8.75;;;2.80;;
24761;SDS011;12865;51.934;10.330;2023-04-03T02:36:56;6.22;;;2.40;;
24761;SDS011;12865;51.934;10.330;2023-04-03T02:39:41;6.20;;;2.10;;
24761;SDS011;12865;51.934;10.330;2023-04-03T02:42:27;5.90;;;2.65;;
24761;SDS011;12865;51.934;10.330;2023-04-03T02:45:13;5.18;;;1.75;;
24761;SDS011;12865;51.934;10.330;2023-04-03T02:47:59;6.45;;;1.88;;
24761;SDS011;12865;51.934;10.330;2023-04-03T02:50:44;6.55;;;2.08;;
24761;SDS011;12865;51.934;10.330;2023-04-03T02:53:30;3.85;;;1.92;;
24761;SDS011;12865;51.934;10.330;2023-04-03T02:56:16;5.78;;;2.13;;
24761;SDS011;12865;51.934;10.330;2023-04-03T02:59:03;7.20;;;1.63;;
24761;SDS011;12865;51.934;10.330;2023-04-03T03:01:50;8.63;;;2.20;;
24761;SDS011;12865;51.934;10.330;2023-04-03T03:04:36;5.93;;;2.92;;
24761;SDS011;12865;51.934;10.330;2023-04-03T03:07:22;3.67;;;2.33;;
24761;SDS011;12865;51.934;10.330;2023-04-03T03:10:08;6.88;;;2.28;;
24761;SDS011;12865;51.934;10.330;2023-04-03T03:12:54;5.47;;;1.52;;
24761;SDS011;12865;51.934;10.330;2023-04-03T03:15:40;6.63;;;2.10;;
24761;SDS011;12865;51.934;10.330;2023-04-03T03:18:25;4.15;;;1.70;;
24761;SDS011;12865;51.934;10.330;2023-04-03T03:21:11;7.65;;;2.03;;
24761;SDS011;12865;51.934;10.330;2023-04-03T03:23:57;5.25;;;2.28;;
24761;SDS011;12865;51.934;10.330;2023-04-03T03:29:33;7.90;;;2.00;;
24761;SDS011;12865;51.934;10.330;2023-04-03T03:32:19;7.88;;;2.15;;
24761;SDS011;12865;51.934;10.330;2023-04-03T03:35:05;7.72;;;1.98;;
24761;SDS011;12865;51.934;10.330;2023-04-03T03:37:51;5.32;;;1.80;;
24761;SDS011;12865;51.934;10.330;2023-04-03T03:40:37;7.80;;;1.92;;
24761;SDS011;12865;51.934;10.330;2023-04-03T03:43:23;5.30;;;2.03;;
24761;SDS011;12865;51.934;10.330;2023-04-03T03:46:08;8.57;;;2.30;;
24761;SDS011;12865;51.934;10.330;2023-04-03T03:48:54;10.93;;;2.40;;
24761;SDS011;12865;51.934;10.330;2023-04-03T03:51:40;6.15;;;2.58;;
24761;SDS011;12865;51.934;10.330;2023-04-03T03:54:25;6.43;;;1.83;;
24761;SDS011;12865;51.934;10.330;2023-04-03T03:57:11;4.72;;;1.92;;
24761;SDS011;12865;51.934;10.330;2023-04-03T03:59:57;5.95;;;2.70;;
24761;SDS011;12865;51.934;10.330;2023-04-03T04:02:43;6.03;;;2.08;;
24761;SDS011;12865;51.934;10.330;2023-04-03T04:05:29;4.45;;;2.17;;
24761;SDS011;12865;51.934;10.330;2023-04-03T04:08:15;8.98;;;2.58;;
24761;SDS011;12865;51.934;10.330;2023-04-03T04:11:01;6.80;;;2.53;;
24761;SDS011;12865;51.934;10.330;2023-04-03T04:13:47;4.10;;;1.92;;
24761;SDS011;12865;51.934;10.330;2023-04-03T04:16:32;5.40;;;2.10;;
24761;SDS011;12865;51.934;10.330;2023-04-03T04:19:18;7.70;;;2.17;;
24761;SDS011;12865;51.934;10.330;2023-04-03T04:22:04;8.20;;;2.47;;
24761;SDS011;12865;51.934;10.330;2023-04-03T04:24:50;6.25;;;2.05;;
24761;SDS011;12865;51.934;10.330;2023-04-03T04:27:36;9.00;;;2.53;;
24761;SDS011;12865;51.934;10.330;2023-04-03T04:30:22;7.55;;;2.20;;
24761;SDS011;12865;51.934;10.330;2023-04-03T04:33:08;5.90;;;2.30;;
24761;SDS011;12865;51.934;10.330;2023-04-03T04:35:54;8.48;;;3.10;;
24761;SDS011;12865;51.934;10.330;2023-04-03T04:38:40;5.82;;;2.17;;
24761;SDS011;12865;51.934;10.330;2023-04-03T04:41:26;6.85;;;2.78;;
24761;SDS011;12865;51.934;10.330;2023-04-03T04:44:12;7.03;;;2.50;;
24761;SDS011;12865;51.934;10.330;2023-04-03T04:46:57;3.88;;;2.05;;
24761;SDS011;12865;51.934;10.330;2023-04-03T04:49:43;7.10;;;2.08;;
24761;SDS011;12865;51.934;10.330;2023-04-03T04:52:32;8.27;;;2.38;;
24761;SDS011;12865;51.934;10.330;2023-04-03T04:55:18;6.65;;;3.10;;
24761;SDS011;12865;51.934;10.330;2023-04-03T04:58:04;5.63;;;2.10;;
24761;SDS011;12865;51.934;10.330;2023-04-03T05:00:49;10.88;;;3.10;;
24761;SDS011;12865;51.934;10.330;2023-04-03T05:03:35;7.85;;;3.03;;
24761;SDS011;12865;51.934;10.330;2023-04-03T05:06:21;13.85;;;3.25;;
24761;SDS011;12865;51.934;10.330;2023-04-03T05:09:07;8.68;;;3.92;;
24761;SDS011;12865;51.934;10.330;2023-04-03T05:11:52;8.70;;;3.80;;
24761;SDS011;12865;51.934;10.330;2023-04-03T05:14:38;9.68;;;4.63;;
24761;SDS011;12865;51.934;10.330;2023-04-03T05:17:24;9.77;;;5.15;;
24761;SDS011;12865;51.934;10.330;2023-04-03T05:20:09;10.63;;;4.13;;
24761;SDS011;12865;51.934;10.330;2023-04-03T05:22:56;7.68;;;4.20;;
24761;SDS011;12865;51.934;10.330;2023-04-03T05:25:42;8.80;;;4.03;;
24761;SDS011;12865;51.934;10.330;2023-04-03T05:28:29;11.65;;;4.78;;
24761;SDS011;12865;51.934;10.330;2023-04-03T05:31:15;9.27;;;3.90;;
24761;SDS011;12865;51.934;10.330;2023-04-03T05:34:01;12.05;;;3.97;;
24761;SDS011;12865;51.934;10.330;2023-04-03T05:36:47;8.27;;;3.70;;
24761;SDS011;12865;51.934;10.330;2023-04-03T05:39:33;9.73;;;3.67;;
24761;SDS011;12865;51.934;10.330;2023-04-03T05:42:19;8.65;;;2.50;;
24761;SDS011;12865;51.934;10.330;2023-04-03T05:45:05;8.70;;;3.20;;
24761;SDS011;12865;51.934;10.330;2023-04-03T05:47:51;7.55;;;2.80;;
24761;SDS011;12865;51.934;10.330;2023-04-03T05:50:37;8.55;;;2.30;;
24761;SDS011;12865;51.934;10.330;2023-04-03T05:53:29;8.82;;;3.13;;
24761;SDS011;12865;51.934;10.330;2023-04-03T05:56:18;8.27;;;2.35;;
24761;SDS011;12865;51.934;10.330;2023-04-03T05:59:07;4.78;;;2.35;;
24761;SDS011;12865;51.934;10.330;2023-04-03T06:01:53;8.10;;;3.22;;
24761;SDS011;12865;51.934;10.330;2023-04-03T06:04:38;10.20;;;2.70;;
24761;SDS011;12865;51.934;10.330;2023-04-03T06:07:24;7.32;;;2.47;;
24761;SDS011;12865;51.934;10.330;2023-04-03T06:10:13;4.53;;;2.70;;
24761;SDS011;12865;51.934;10.330;2023-04-03T06:12:59;7.45;;;2.58;;
24761;SDS011;12865;51.934;10.330;2023-04-03T06:15:44;6.10;;;3.50;;
24761;SDS011;12865;51.934;10.330;2023-04-03T06:18:30;8.05;;;2.63;;
24761;SDS011;12865;51.934;10.330;2023-04-03T06:21:16;5.85;;;3.35;;
24761;SDS011;12865;51.934;10.330;2023-04-03T06:24:04;7.28;;;2.65;;
24761;SDS011;12865;51.934;10.330;2023-04-03T06:26:51;6.05;;;2.22;;
24761;SDS011;12865;51.934;10.330;2023-04-03T06:29:38;11.25;;;3.00;;
24761;SDS011;12865;51.934;10.330;2023-04-03T06:32:23;8.02;;;3.15;;
24761;SDS011;12865;51.934;10.330;2023-04-03T06:35:09;5.45;;;1.85;;
24761;SDS011;12865;51.934;10.330;2023-04-03T06:37:56;4.40;;;1.95;;
24761;SDS011;12865;51.934;10.330;2023-04-03T06:40:41;4.53;;;1.70;;
24761;SDS011;12865;51.934;10.330;2023-04-03T06:43:27;9.55;;;2.42;;
24761;SDS011;12865;51.934;10.330;2023-04-03T06:46:16;7.30;;;2.60;;
24761;SDS011;12865;51.934;10.330;2023-04-03T06:49:03;4.65;;;1.90;;
24761;SDS011;12865;51.934;10.330;2023-04-03T06:51:49;6.10;;;1.90;;
24761;SDS011;12865;51.934;10.330;2023-04-03T06:54:35;2.58;;;1.58;;
24761;SDS011;12865;51.934;10.330;2023-04-03T06:57:21;7.90;;;2.08;;
24761;SDS011;12865;51.934;10.330;2023-04-03T07:00:07;5.68;;;1.73;;
24761;SDS011;12865;51.934;10.330;2023-04-03T07:02:54;6.15;;;1.88;;
24761;SDS011;12865;51.934;10.330;2023-04-03T07:05:41;8.13;;;1.92;;
24761;SDS011;12865;51.934;10.330;2023-04-03T07:08:29;5.07;;;2.20;;
24761;SDS011;12865;51.934;10.330;2023-04-03T07:11:15;8.85;;;2.03;;
24761;SDS011;12865;51.934;10.330;2023-04-03T07:14:02;8.80;;;2.10;;
24761;SDS011;12865;51.934;10.330;2023-04-03T07:16:48;4.57;;;1.88;;
24761;SDS011;12865;51.934;10.330;2023-04-03T07:19:34;9.80;;;1.90;;
24761;SDS011;12865;51.934;10.330;2023-04-03T07:22:19;7.93;;;1.90;;
24761;SDS011;12865;51.934;10.330;2023-04-03T07:25:05;4.25;;;1.63;;
24761;SDS011;12865;51.934;10.330;2023-04-03T07:27:52;6.05;;;1.60;;
24761;SDS011;12865;51.934;10.330;2023-04-03T07:30:43;5.57;;;1.70;;
24761;SDS011;12865;51.934;10.330;2023-04-03T07:33:33;6.05;;;1.70;;
24761;SDS011;12865;51.934;10.330;2023-04-03T07:36:20;9.32;;;1.77;;
24761;SDS011;12865;51.934;10.330;2023-04-03T07:39:07;8.93;;;2.30;;
24761;SDS011;12865;51.934;10.330;2023-04-03T07:41:53;4.43;;;2.08;;
24761;SDS011;12865;51.934;10.330;2023-04-03T07:44:40;4.72;;;2.38;;
24761;SDS011;12865;51.934;10.330;2023-04-03T07:47:27;6.55;;;1.67;;
24761;SDS011;12865;51.934;10.330;2023-04-03T07:50:12;6.82;;;2.58;;
24761;SDS011;12865;51.934;10.330;2023-04-03T07:52:58;3.88;;;1.77;;
24761;SDS011;12865;51.934;10.330;2023-04-03T07:55:48;5.13;;;2.00;;
24761;SDS011;12865;51.934;10.330;2023-04-03T07:58:36;4.68;;;1.85;;
24761;SDS011;12865;51.934;10.330;2023-04-03T08:01:22;5.30;;;1.70;;
24761;SDS011;12865;51.934;10.330;2023-04-03T08:04:08;7.55;;;2.00;;
24761;SDS011;12865;51.934;10.330;2023-04-03T08:06:53;4.88;;;1.98;;
24761;SDS011;12865;51.934;10.330;2023-04-03T08:09:39;7.15;;;2.08;;
24761;SDS011;12865;51.934;10.330;2023-04-03T08:12:25;5.68;;;2.08;;
24761;SDS011;12865;51.934;10.330;2023-04-03T08:15:11;5.50;;;1.50;;
24761;SDS011;12865;51.934;10.330;2023-04-03T08:17:56;4.38;;;1.85;;
24761;SDS011;12865;51.934;10.330;2023-04-03T08:20:43;3.28;;;1.63;;
24761;SDS011;12865;51.934;10.330;2023-04-03T08:23:29;4.72;;;2.10;;
24761;SDS011;12865;51.934;10.330;2023-04-03T08:26:16;6.38;;;1.75;;
24761;SDS011;12865;51.934;10.330;2023-04-03T08:29:04;7.33;;;2.17;;
24761;SDS011;12865;51.934;10.330;2023-04-03T08:31:50;6.03;;;1.88;;
24761;SDS011;12865;51.934;10.330;2023-04-03T08:34:36;8.82;;;2.03;;
24761;SDS011;12865;51.934;10.330;2023-04-03T08:37:24;4.63;;;1.90;;
24761;SDS011;12865;51.934;10.330;2023-04-03T08:40:12;4.88;;;1.58;;
24761;SDS011;12865;51.934;10.330;2023-04-03T08:46:35;6.43;;;1.75;;
24761;SDS011;12865;51.934;10.330;2023-04-03T08:52:56;8.75;;;2.38;;
24761;SDS011;12865;51.934;10.330;2023-04-03T08:55:48;6.80;;;1.80;;
24761;SDS011;12865;51.934;10.330;2023-04-03T08:58:44;4.95;;;1.92;;
24761;SDS011;12865;51.934;10.330;2023-04-03T09:01:35;5.25;;;1.85;;
24761;SDS011;12865;51.934;10.330;2023-04-03T09:04:22;3.97;;;1.50;;
24761;SDS011;12865;51.934;10.330;2023-04-03T09:07:17;9.35;;;3.47;;
24761;SDS011;12865;51.934;10.330;2023-04-03T09:10:20;3.20;;;1.63;;
24761;SDS011;12865;51.934;10.330;2023-04-03T09:13:13;3.78;;;1.70;;
24761;SDS011;12865;51.934;10.330;2023-04-03T09:16:29;6.18;;;1.42;;
24761;SDS011;12865;51.934;10.330;2023-04-03T09:22:23;5.40;;;1.50;;
24761;SDS011;12865;51.934;10.330;2023-04-03T09:28:07;2.78;;;1.30;;
24761;SDS011;12865;51.934;10.330;2023-04-03T09:30:55;3.92;;;1.85;;
24761;SDS011;12865;51.934;10.330;2023-04-03T09:33:40;4.78;;;1.45;;
24761;SDS011;12865;51.934;10.330;2023-04-03T09:39:28;3.42;;;1.38;;
24761;SDS011;12865;51.934;10.330;2023-04-03T09:42:16;6.88;;;1.52;;
24761;SDS011;12865;51.934;10.330;2023-04-03T09:45:10;4.38;;;1.33;;
24761;SDS011;12865;51.934;10.330;2023-04-03T09:48:13;3.70;;;1.67;;
24761;SDS011;12865;51.934;10.330;2023-04-03T09:51:03;4.40;;;1.63;;
24761;SDS011;12865;51.934;10.330;2023-04-03T09:53:49;3.60;;;1.15;;
24761;SDS011;12865;51.934;10.330;2023-04-03T09:56:35;3.75;;;1.23;;
24761;SDS011;12865;51.934;10.330;2023-04-03T09:59:20;3.17;;;1.50;;
24761;SDS011;12865;51.934;10.330;2023-04-03T10:04:52;3.42;;;1.30;;
24761;SDS011;12865;51.934;10.330;2023-04-03T10:07:38;6.03;;;1.45;;
24761;SDS011;12865;51.934;10.330;2023-04-03T10:10:24;2.60;;;0.93;;
24761;SDS011;12865;51.934;10.330;2023-04-03T10:13:12;4.40;;;1.60;;
24761;SDS011;12865;51.934;10.330;2023-04-03T10:16:08;4.82;;;1.52;;
24761;SDS011;12865;51.934;10.330;2023-04-03T10:19:05;2.53;;;1.40;;
24761;SDS011;12865;51.934;10.330;2023-04-03T10:25:00;2.55;;;1.10;;
24761;SDS011;12865;51.934;10.330;2023-04-03T10:39:59;5.13;;;1.60;;
24761;SDS011;12865;51.934;10.330;2023-04-03T10:42:53;2.92;;;1.58;;
24761;SDS011;12865;51.934;10.330;2023-04-03T10:45:49;1.80;;;1.40;;
24761;SDS011;12865;51.934;10.330;2023-04-03T10:51:49;3.50;;;1.48;;
24761;SDS011;12865;51.934;10.330;2023-04-03T10:54:41;5.43;;;2.03;;
24761;SDS011;12865;51.934;10.330;2023-04-03T10:57:34;4.80;;;2.00;;
24761;SDS011;12865;51.934;10.330;2023-04-03T11:00:22;2.40;;;1.30;;
24761;SDS011;12865;51.934;10.330;2023-04-03T11:06:19;4.57;;;1.55;;
24761;SDS011;12865;51.934;10.330;2023-04-03T11:11:38;3.15;;;1.83;;
24761;SDS011;12865;51.934;10.330;2023-04-03T11:14:30;2.60;;;1.40;;
24761;SDS011;12865;51.934;10.330;2023-04-03T11:20:14;4.80;;;1.35;;
24761;SDS011;12865;51.934;10.330;2023-04-03T11:23:22;5.03;;;1.40;;
24761;SDS011;12865;51.934;10.330;2023-04-03T11:26:18;5.47;;;1.90;;
24761;SDS011;12865;51.934;10.330;2023-04-03T11:29:08;3.17;;;1.70;;
24761;SDS011;12865;51.934;10.330;2023-04-03T11:34:59;3.47;;;1.65;;
24761;SDS011;12865;51.934;10.330;2023-04-03T11:37:53;2.55;;;1.60;;
24761;SDS011;12865;51.934;10.330;2023-04-03T11:40:40;2.92;;;2.00;;
24761;SDS011;12865;51.934;10.330;2023-04-03T11:43:30;3.75;;;1.48;;
24761;SDS011;12865;51.934;10.330;2023-04-03T11:46:16;3.53;;;1.20;;
24761;SDS011;12865;51.934;10.330;2023-04-03T11:49:04;3.00;;;1.35;;
24761;SDS011;12865;51.934;10.330;2023-04-03T11:51:50;2.10;;;1.17;;
24761;SDS011;12865;51.934;10.330;2023-04-03T11:54:43;3.08;;;1.48;;
24761;SDS011;12865;51.934;10.330;2023-04-03T11:57:45;1.30;;;1.00;;
24761;SDS011;12865;51.934;10.330;2023-04-03T12:00:51;2.10;;;0.90;;
24761;SDS011;12865;51.934;10.330;2023-04-03T12:09:22;3.35;;;1.23;;
24761;SDS011;12865;51.934;10.330;2023-04-03T12:15:24;1.70;;;0.98;;
24761;SDS011;12865;51.934;10.330;2023-04-03T12:18:44;3.97;;;1.95;;
24761;SDS011;12865;51.934;10.330;2023-04-03T12:24:31;5.15;;;1.20;;
24761;SDS011;12865;51.934;10.330;2023-04-03T12:27:26;3.00;;;1.20;;
24761;SDS011;12865;51.934;10.330;2023-04-03T12:30:35;2.00;;;1.17;;
24761;SDS011;12865;51.934;10.330;2023-04-03T12:33:24;4.63;;;1.63;;
24761;SDS011;12865;51.934;10.330;2023-04-03T12:42:58;3.17;;;1.30;;
24761;SDS011;12865;51.934;10.330;2023-04-03T12:45:59;3.40;;;1.35;;
24761;SDS011;12865;51.934;10.330;2023-04-03T12:48:58;4.03;;;1.48;;
24761;SDS011;12865;51.934;10.330;2023-04-03T12:51:45;3.80;;;1.50;;
24761;SDS011;12865;51.934;10.330;2023-04-03T12:54:34;4.30;;;1.85;;
24761;SDS011;12865;51.934;10.330;2023-04-03T12:57:24;4.15;;;1.20;;
24761;SDS011;12865;51.934;10.330;2023-04-03T13:00:18;3.75;;;1.33;;
24761;SDS011;12865;51.934;10.330;2023-04-03T13:06:10;4.72;;;1.50;;
24761;SDS011;12865;51.934;10.330;2023-04-03T13:09:04;3.88;;;1.63;;
24761;SDS011;12865;51.934;10.330;2023-04-03T13:11:51;3.28;;;1.92;;
24761;SDS011;12865;51.934;10.330;2023-04-03T13:14:59;2.42;;;1.20;;
24761;SDS011;12865;51.934;10.330;2023-04-03T13:17:49;2.30;;;1.40;;
24761;SDS011;12865;51.934;10.330;2023-04-03T13:20:37;4.63;;;1.70;;
24761;SDS011;12865;51.934;10.330;2023-04-03T13:23:23;6.65;;;1.70;;
24761;SDS011;12865;51.934;10.330;2023-04-03T13:26:10;2.95;;;1.50;;
24761;SDS011;12865;51.934;10.330;2023-04-03T13:28:58;1.95;;;1.20;;
24761;SDS011;12865;51.934;10.330;2023-04-03T13:31:48;1.95;;;1.38;;
24761;SDS011;12865;51.934;10.330;2023-04-03T13:34:42;2.42;;;1.42;;
24761;SDS011;12865;51.934;10.330;2023-04-03T13:37:29;4.65;;;1.40;;
24761;SDS011;12865;51.934;10.330;2023-04-03T13:40:17;5.75;;;1.83;;
24761;SDS011;12865;51.934;10.330;2023-04-03T13:43:15;1.45;;;1.35;;
24761;SDS011;12865;51.934;10.330;2023-04-03T13:46:05;2.47;;;1.70;;
24761;SDS011;12865;51.934;10.330;2023-04-03T13:48:56;3.13;;;1.60;;
24761;SDS011;12865;51.934;10.330;2023-04-03T13:51:42;3.55;;;1.50;;
24761;SDS011;12865;51.934;10.330;2023-04-03T13:54:33;2.22;;;1.30;;
24761;SDS011;12865;51.934;10.330;2023-04-03T13:57:20;2.75;;;1.60;;
24761;SDS011;12865;51.934;10.330;2023-04-03T14:03:21;4.35;;;1.77;;
24761;SDS011;12865;51.934;10.330;2023-04-03T14:06:13;2.55;;;1.50;;
24761;SDS011;12865;51.934;10.330;2023-04-03T14:09:02;3.45;;;1.80;;
24761;SDS011;12865;51.934;10.330;2023-04-03T14:11:49;2.30;;;1.70;;
24761;SDS011;12865;51.934;10.330;2023-04-03T14:14:37;2.97;;;1.60;;
24761;SDS011;12865;51.934;10.330;2023-04-03T14:17:24;3.95;;;1.75;;
24761;SDS011;12865;51.934;10.330;2023-04-03T14:20:21;3.63;;;1.40;;
24761;SDS011;12865;51.934;10.330;2023-04-03T14:23:09;4.57;;;1.38;;
24761;SDS011;12865;51.934;10.330;2023-04-03T14:25:55;2.05;;;1.42;;
24761;SDS011;12865;51.934;10.330;2023-04-03T14:28:46;3.38;;;1.80;;
24761;SDS011;12865;51.934;10.330;2023-04-03T14:31:33;5.32;;;1.60;;
24761;SDS011;12865;51.934;10.330;2023-04-03T14:34:19;3.45;;;1.55;;
24761;SDS011;12865;51.934;10.330;2023-04-03T14:37:05;3.92;;;1.73;;
24761;SDS011;12865;51.934;10.330;2023-04-03T14:39:56;3.60;;;1.50;;
24761;SDS011;12865;51.934;10.330;2023-04-03T14:42:43;3.40;;;1.52;;
24761;SDS011;12865;51.934;10.330;2023-04-03T14:45:30;3.35;;;1.40;;
24761;SDS011;12865;51.934;10.330;2023-04-03T14:48:20;2.83;;;1.33;;
24761;SDS011;12865;51.934;10.330;2023-04-03T14:51:09;2.45;;;1.45;;
24761;SDS011;12865;51.934;10.330;2023-04-03T14:56:43;4.30;;;1.98;;
24761;SDS011;12865;51.934;10.330;2023-04-03T14:59:29;3.97;;;1.70;;
24761;SDS011;12865;51.934;10.330;2023-04-03T15:02:27;4.15;;;1.70;;
24761;SDS011;12865;51.934;10.330;2023-04-03T15:05:13;3.67;;;1.80;;
24761;SDS011;12865;51.934;10.330;2023-04-03T15:08:00;3.28;;;1.55;;
24761;SDS011;12865;51.934;10.330;2023-04-03T15:10:45;10.70;;;5.75;;
24761;SDS011;12865;51.934;10.330;2023-04-03T15:13:32;3.58;;;2.17;;
24761;SDS011;12865;51.934;10.330;2023-04-03T15:16:18;9.55;;;6.25;;
24761;SDS011;12865;51.934;10.330;2023-04-03T15:19:04;6.03;;;4.93;;
24761;SDS011;12865;51.934;10.330;2023-04-03T15:21:50;4.43;;;2.38;;
24761;SDS011;12865;51.934;10.330;2023-04-03T15:24:36;3.00;;;2.53;;
24761;SDS011;12865;51.934;10.330;2023-04-03T15:27:22;1.85;;;1.63;;
24761;SDS011;12865;51.934;10.330;2023-04-03T15:30:10;5.75;;;4.88;;
24761;SDS011;12865;51.934;10.330;2023-04-03T15:32:59;5.93;;;4.00;;
24761;SDS011;12865;51.934;10.330;2023-04-03T15:35:44;9.15;;;8.20;;
24761;SDS011;12865;51.934;10.330;2023-04-03T15:38:30;3.83;;;2.30;;
24761;SDS011;12865;51.934;10.330;2023-04-03T15:41:16;3.38;;;1.60;;
24761;SDS011;12865;51.934;10.330;2023-04-03T15:44:02;6.50;;;1.85;;
24761;SDS011;12865;51.934;10.330;2023-04-03T15:46:47;5.43;;;4.93;;
24761;SDS011;12865;51.934;10.330;2023-04-03T15:49:36;2.35;;;1.70;;
24761;SDS011;12865;51.934;10.330;2023-04-03T15:52:22;3.53;;;1.60;;
24761;SDS011;12865;51.934;10.330;2023-04-03T15:55:08;1.75;;;1.63;;
24761;SDS011;12865;51.934;10.330;2023-04-03T15:57:54;5.22;;;3.72;;
24761;SDS011;12865;51.934;10.330;2023-04-03T16:00:40;7.53;;;4.97;;
24761;SDS011;12865;51.934;10.330;2023-04-03T16:03:26;6.32;;;4.32;;
24761;SDS011;12865;51.934;10.330;2023-04-03T16:06:16;14.45;;;11.65;;
24761;SDS011;12865;51.934;10.330;2023-04-03T16:09:04;1.92;;;1.40;;
24761;SDS011;12865;51.934;10.330;2023-04-03T16:11:50;5.55;;;2.35;;
24761;SDS011;12865;51.934;10.330;2023-04-03T16:14:35;4.28;;;2.00;;
24761;SDS011;12865;51.934;10.330;2023-04-03T16:17:21;2.95;;;2.72;;
24761;SDS011;12865;51.934;10.330;2023-04-03T16:20:07;3.72;;;1.80;;
24761;SDS011;12865;51.934;10.330;2023-04-03T16:22:56;4.93;;;2.05;;
24761;SDS011;12865;51.934;10.330;2023-04-03T16:25:44;5.32;;;1.85;;
24761;SDS011;12865;51.934;10.330;2023-04-03T16:28:31;4.25;;;1.60;;
24761;SDS011;12865;51.934;10.330;2023-04-03T16:31:17;3.97;;;2.78;;
24761;SDS011;12865;51.934;10.330;2023-04-03T16:34:03;6.63;;;4.65;;
24761;SDS011;12865;51.934;10.330;2023-04-03T16:36:49;6.50;;;5.50;;
24761;SDS011;12865;51.934;10.330;2023-04-03T16:39:35;25.55;;;23.17;;
24761;SDS011;12865;51.934;10.330;2023-04-03T16:42:21;7.90;;;6.68;;
24761;SDS011;12865;51.934;10.330;2023-04-03T16:45:06;13.93;;;12.63;;
24761;SDS011;12865;51.934;10.330;2023-04-03T16:47:53;13.52;;;12.23;;
24761;SDS011;12865;51.934;10.330;2023-04-03T16:50:38;8.35;;;3.90;;
24761;SDS011;12865;51.934;10.330;2023-04-03T16:53:24;7.35;;;5.28;;
24761;SDS011;12865;51.934;10.330;2023-04-03T16:56:10;10.10;;;8.50;;
24761;SDS011;12865;51.934;10.330;2023-04-03T16:58:56;29.58;;;23.63;;
24761;SDS011;12865;51.934;10.330;2023-04-03T17:01:42;19.85;;;16.05;;
24761;SDS011;12865;51.934;10.330;2023-04-03T17:04:27;49.40;;;31.58;;
24761;SDS011;12865;51.934;10.330;2023-04-03T17:07:13;24.30;;;14.57;;
24761;SDS011;12865;51.934;10.330;2023-04-03T17:09:59;30.20;;;22.08;;
24761;SDS011;12865;51.934;10.330;2023-04-03T17:12:45;6.22;;;4.93;;
24761;SDS011;12865;51.934;10.330;2023-04-03T17:15:30;9.10;;;5.65;;
24761;SDS011;12865;51.934;10.330;2023-04-03T17:18:16;6.22;;;4.90;;
24761;SDS011;12865;51.934;10.330;2023-04-03T17:21:02;7.30;;;5.47;;
24761;SDS011;12865;51.934;10.330;2023-04-03T17:23:50;12.13;;;11.13;;
24761;SDS011;12865;51.934;10.330;2023-04-03T17:26:39;5.18;;;3.85;;
24761;SDS011;12865;51.934;10.330;2023-04-03T17:29:26;5.07;;;2.38;;
24761;SDS011;12865;51.934;10.330;2023-04-03T17:32:12;14.20;;;9.30;;
24761;SDS011;12865;51.934;10.330;2023-04-03T17:34:57;17.35;;;13.05;;
24761;SDS011;12865;51.934;10.330;2023-04-03T17:37:43;15.88;;;12.43;;
24761;SDS011;12865;51.934;10.330;2023-04-03T17:40:29;15.20;;;11.05;;
24761;SDS011;12865;51.934;10.330;2023-04-03T17:43:15;18.17;;;15.52;;
24761;SDS011;12865;51.934;10.330;2023-04-03T17:46:02;35.13;;;31.50;;
24761;SDS011;12865;51.934;10.330;2023-04-03T17:48:50;36.90;;;31.75;;
24761;SDS011;12865;51.934;10.330;2023-04-03T17:51:36;16.65;;;11.88;;
24761;SDS011;12865;51.934;10.330;2023-04-03T17:54:21;10.48;;;7.60;;
24761;SDS011;12865;51.934;10.330;2023-04-03T17:57:07;24.90;;;22.35;;
24761;SDS011;12865;51.934;10.330;2023-04-03T17:59:53;12.98;;;11.30;;
24761;SDS011;12865;51.934;10.330;2023-04-03T18:02:39;21.70;;;19.45;;
24761;SDS011;12865;51.934;10.330;2023-04-03T18:05:27;25.67;;;20.65;;
24761;SDS011;12865;51.934;10.330;2023-04-03T18:08:13;14.27;;;9.07;;